sensor_id;sensor_type;location;lat;lon;timestamp;temperature;humidity
2893;DHT22;1456;51.840;12.184;2022-07-30T00:00:15;19.50;99.90
2893;DHT22;1456;51.840;12.184;2022-07-30T00:02:41;19.40;99.90
2893;DHT22;1456;51.840;12.184;2022-07-30T00:05:09;19.20;99.90
2893;DHT22;1456;51.840;12.184;2022-07-30T00:07:37;19.10;99.90
2893;DHT22;1456;51.840;12.184;2022-07-30T00:10:03;19.10;99.90
2893;DHT22;1456;51.840;12.184;2022-07-30T00:12:29;19.20;99.90
2893;DHT22;1456;51.840;12.184;2022-07-30T00:14:56;19.30;99.90
2893;DHT22;1456;51.840;12.184;2022-07-30T00:17:23;19.30;99.90
2893;DHT22;1456;51.840;12.184;2022-07-30T00:19:54;19.40;99.90
2893;DHT22;1456;51.840;12.184;2022-07-30T00:22:19;19.40;99.90
2893;DHT22;1456;51.840;12.184;2022-07-30T00:24:49;19.30;99.90
2893;DHT22;1456;51.840;12.184;2022-07-30T00:27:15;19.20;99.90
2893;DHT22;1456;51.840;12.184;2022-07-30T00:29:41;19.30;99.90
2893;DHT22;1456;51.840;12.184;2022-07-30T00:32:09;19.40;99.90
2893;DHT22;1456;51.840;12.184;2022-07-30T00:34:37;19.30;99.90
2893;DHT22;1456;51.840;12.184;2022-07-30T00:37:07;19.30;99.90
2893;DHT22;1456;51.840;12.184;2022-07-30T00:39:35;19.30;99.90
2893;DHT22;1456;51.840;12.184;2022-07-30T00:42:04;19.30;99.90
2893;DHT22;1456;51.840;12.184;2022-07-30T00:44:32;19.30;99.90
2893;DHT22;1456;51.840;12.184;2022-07-30T00:47:01;19.40;99.90
2893;DHT22;1456;51.840;12.184;2022-07-30T00:49:28;19.50;99.90
2893;DHT22;1456;51.840;12.184;2022-07-30T00:51:54;19.50;99.90
2893;DHT22;1456;51.840;12.184;2022-07-30T00:54:20;19.50;99.90
2893;DHT22;1456;51.840;12.184;2022-07-30T00:56:47;19.50;99.90
2893;DHT22;1456;51.840;12.184;2022-07-30T00:59:13;19.50;99.90
2893;DHT22;1456;51.840;12.184;2022-07-30T01:01:44;19.60;99.90
2893;DHT22;1456;51.840;12.184;2022-07-30T01:04:11;19.60;99.90
2893;DHT22;1456;51.840;12.184;2022-07-30T01:06:37;19.50;99.90
2893;DHT22;1456;51.840;12.184;2022-07-30T01:09:06;19.50;99.90
2893;DHT22;1456;51.840;12.184;2022-07-30T01:11:36;19.40;99.90
2893;DHT22;1456;51.840;12.184;2022-07-30T01:14:04;19.40;99.90
2893;DHT22;1456;51.840;12.184;2022-07-30T01:16:30;19.50;99.90
2893;DHT22;1456;51.840;12.184;2022-07-30T01:18:57;19.50;99.90
2893;DHT22;1456;51.840;12.184;2022-07-30T01:21:45;19.50;99.90
2893;DHT22;1456;51.840;12.184;2022-07-30T01:24:32;19.60;99.90
2893;DHT22;1456;51.840;12.184;2022-07-30T01:27:00;19.50;99.90
2893;DHT22;1456;51.840;12.184;2022-07-30T01:29:28;19.50;99.90
2893;DHT22;1456;51.840;12.184;2022-07-30T01:31:56;19.50;99.90
2893;DHT22;1456;51.840;12.184;2022-07-30T01:34:30;19.50;99.90
2893;DHT22;1456;51.840;12.184;2022-07-30T01:36:58;19.50;99.90
2893;DHT22;1456;51.840;12.184;2022-07-30T01:39:25;19.50;99.90
2893;DHT22;1456;51.840;12.184;2022-07-30T01:41:55;19.50;99.90
2893;DHT22;1456;51.840;12.184;2022-07-30T01:44:24;19.30;99.90
2893;DHT22;1456;51.840;12.184;2022-07-30T01:46:52;19.30;99.90
2893;DHT22;1456;51.840;12.184;2022-07-30T01:49:18;19.30;99.90
2893;DHT22;1456;51.840;12.184;2022-07-30T01:51:46;19.30;99.90
2893;DHT22;1456;51.840;12.184;2022-07-30T01:54:13;19.20;99.90
2893;DHT22;1456;51.840;12.184;2022-07-30T01:56:42;19.30;99.90
2893;DHT22;1456;51.840;12.184;2022-07-30T01:59:10;19.30;99.90
2893;DHT22;1456;51.840;12.184;2022-07-30T02:01:38;19.30;99.90
2893;DHT22;1456;51.840;12.184;2022-07-30T02:04:04;19.30;99.90
2893;DHT22;1456;51.840;12.184;2022-07-30T02:09:23;19.00;99.90
2893;DHT22;1456;51.840;12.184;2022-07-30T02:11:51;19.00;99.90
2893;DHT22;1456;51.840;12.184;2022-07-30T02:14:47;19.00;99.90
2893;DHT22;1456;51.840;12.184;2022-07-30T02:17:20;19.00;99.90
2893;DHT22;1456;51.840;12.184;2022-07-30T02:19:50;18.90;99.90
2893;DHT22;1456;51.840;12.184;2022-07-30T02:22:18;18.70;99.90
2893;DHT22;1456;51.840;12.184;2022-07-30T02:24:47;18.80;99.90
2893;DHT22;1456;51.840;12.184;2022-07-30T02:27:21;18.70;99.90
2893;DHT22;1456;51.840;12.184;2022-07-30T02:29:49;18.80;99.90
2893;DHT22;1456;51.840;12.184;2022-07-30T02:32:19;18.80;99.90
2893;DHT22;1456;51.840;12.184;2022-07-30T02:34:50;18.90;99.90
2893;DHT22;1456;51.840;12.184;2022-07-30T02:37:19;18.90;99.90
2893;DHT22;1456;51.840;12.184;2022-07-30T02:39:49;18.80;99.90
2893;DHT22;1456;51.840;12.184;2022-07-30T02:42:17;18.70;99.90
2893;DHT22;1456;51.840;12.184;2022-07-30T02:44:44;18.70;99.90
2893;DHT22;1456;51.840;12.184;2022-07-30T02:47:15;18.70;99.90
2893;DHT22;1456;51.840;12.184;2022-07-30T02:49:43;18.80;99.90
2893;DHT22;1456;51.840;12.184;2022-07-30T02:52:13;18.80;99.90
2893;DHT22;1456;51.840;12.184;2022-07-30T02:54:41;18.90;99.90
2893;DHT22;1456;51.840;12.184;2022-07-30T02:57:08;18.90;99.90
2893;DHT22;1456;51.840;12.184;2022-07-30T02:59:37;19.00;99.90
2893;DHT22;1456;51.840;12.184;2022-07-30T03:02:06;18.90;99.90
2893;DHT22;1456;51.840;12.184;2022-07-30T03:04:32;18.70;99.90
2893;DHT22;1456;51.840;12.184;2022-07-30T03:07:00;18.70;99.90
2893;DHT22;1456;51.840;12.184;2022-07-30T03:09:26;18.70;99.90
2893;DHT22;1456;51.840;12.184;2022-07-30T03:11:53;18.60;99.90
2893;DHT22;1456;51.840;12.184;2022-07-30T03:14:20;18.60;99.90
2893;DHT22;1456;51.840;12.184;2022-07-30T03:16:56;18.50;99.90
2893;DHT22;1456;51.840;12.184;2022-07-30T03:19:28;18.40;99.90
2893;DHT22;1456;51.840;12.184;2022-07-30T03:21:56;18.30;99.90
2893;DHT22;1456;51.840;12.184;2022-07-30T03:24:23;18.30;99.90
2893;DHT22;1456;51.840;12.184;2022-07-30T03:26:51;18.20;99.90
2893;DHT22;1456;51.840;12.184;2022-07-30T03:29:19;18.20;99.90
2893;DHT22;1456;51.840;12.184;2022-07-30T03:31:50;18.10;99.90
2893;DHT22;1456;51.840;12.184;2022-07-30T03:34:17;18.00;99.90
2893;DHT22;1456;51.840;12.184;2022-07-30T03:36:44;17.90;99.90
2893;DHT22;1456;51.840;12.184;2022-07-30T03:39:11;17.90;99.90
2893;DHT22;1456;51.840;12.184;2022-07-30T03:41:37;17.90;99.90
2893;DHT22;1456;51.840;12.184;2022-07-30T03:44:04;17.80;99.90
2893;DHT22;1456;51.840;12.184;2022-07-30T03:46:30;17.70;99.90
2893;DHT22;1456;51.840;12.184;2022-07-30T03:48:57;17.80;99.90
2893;DHT22;1456;51.840;12.184;2022-07-30T03:51:24;17.90;99.90
2893;DHT22;1456;51.840;12.184;2022-07-30T03:53:51;17.90;99.90
2893;DHT22;1456;51.840;12.184;2022-07-30T03:56:16;17.90;99.90
2893;DHT22;1456;51.840;12.184;2022-07-30T03:58:42;18.00;99.90
2893;DHT22;1456;51.840;12.184;2022-07-30T04:01:09;18.10;99.90
2893;DHT22;1456;51.840;12.184;2022-07-30T04:03:35;18.10;99.90
2893;DHT22;1456;51.840;12.184;2022-07-30T04:06:00;18.10;99.90
2893;DHT22;1456;51.840;12.184;2022-07-30T04:08:27;18.20;99.90
2893;DHT22;1456;51.840;12.184;2022-07-30T04:10:53;18.20;99.90
2893;DHT22;1456;51.840;12.184;2022-07-30T04:13:18;18.20;99.90
2893;DHT22;1456;51.840;12.184;2022-07-30T04:15:57;18.10;99.90
2893;DHT22;1456;51.840;12.184;2022-07-30T04:18:26;18.10;99.90
2893;DHT22;1456;51.840;12.184;2022-07-30T04:20:53;18.00;99.90
2893;DHT22;1456;51.840;12.184;2022-07-30T04:23:19;18.10;99.90
2893;DHT22;1456;51.840;12.184;2022-07-30T04:25:47;18.10;99.90
2893;DHT22;1456;51.840;12.184;2022-07-30T04:28:13;18.20;99.90
2893;DHT22;1456;51.840;12.184;2022-07-30T04:30:39;18.20;99.90
2893;DHT22;1456;51.840;12.184;2022-07-30T04:33:06;18.20;99.90
2893;DHT22;1456;51.840;12.184;2022-07-30T04:35:33;18.10;99.90
2893;DHT22;1456;51.840;12.184;2022-07-30T04:37:59;18.10;99.90
2893;DHT22;1456;51.840;12.184;2022-07-30T04:40:27;18.00;99.90
2893;DHT22;1456;51.840;12.184;2022-07-30T04:42:54;18.10;99.90
2893;DHT22;1456;51.840;12.184;2022-07-30T04:45:20;18.10;99.90
2893;DHT22;1456;51.840;12.184;2022-07-30T04:47:46;18.20;99.90
2893;DHT22;1456;51.840;12.184;2022-07-30T04:50:13;18.10;99.90
2893;DHT22;1456;51.840;12.184;2022-07-30T04:52:40;18.00;99.90
2893;DHT22;1456;51.840;12.184;2022-07-30T04:55:08;18.00;99.90
2893;DHT22;1456;51.840;12.184;2022-07-30T04:57:36;18.00;99.90
2893;DHT22;1456;51.840;12.184;2022-07-30T05:00:04;17.90;99.90
2893;DHT22;1456;51.840;12.184;2022-07-30T05:02:32;18.00;99.90
2893;DHT22;1456;51.840;12.184;2022-07-30T05:04:58;18.00;99.90
2893;DHT22;1456;51.840;12.184;2022-07-30T05:07:27;17.90;99.90
2893;DHT22;1456;51.840;12.184;2022-07-30T05:09:53;17.90;99.90
2893;DHT22;1456;51.840;12.184;2022-07-30T05:12:19;17.90;99.90
2893;DHT22;1456;51.840;12.184;2022-07-30T05:14:44;18.00;99.90
2893;DHT22;1456;51.840;12.184;2022-07-30T05:17:10;18.00;99.90
2893;DHT22;1456;51.840;12.184;2022-07-30T05:19:36;18.00;99.90
2893;DHT22;1456;51.840;12.184;2022-07-30T05:22:02;18.00;99.90
2893;DHT22;1456;51.840;12.184;2022-07-30T05:24:28;18.10;99.90
2893;DHT22;1456;51.840;12.184;2022-07-30T05:26:53;18.00;99.90
2893;DHT22;1456;51.840;12.184;2022-07-30T05:29:20;18.00;99.90
2893;DHT22;1456;51.840;12.184;2022-07-30T05:31:46;18.00;99.90
2893;DHT22;1456;51.840;12.184;2022-07-30T05:34:13;18.00;99.90
2893;DHT22;1456;51.840;12.184;2022-07-30T05:36:39;18.00;99.90
2893;DHT22;1456;51.840;12.184;2022-07-30T05:39:04;17.90;99.90
2893;DHT22;1456;51.840;12.184;2022-07-30T05:41:30;17.90;99.90
2893;DHT22;1456;51.840;12.184;2022-07-30T05:43:56;18.00;99.90
2893;DHT22;1456;51.840;12.184;2022-07-30T05:46:22;18.10;99.90
2893;DHT22;1456;51.840;12.184;2022-07-30T05:48:48;18.10;99.90
2893;DHT22;1456;51.840;12.184;2022-07-30T05:51:14;18.10;99.90
2893;DHT22;1456;51.840;12.184;2022-07-30T05:53:39;18.10;99.90
2893;DHT22;1456;51.840;12.184;2022-07-30T05:56:05;18.10;99.90
2893;DHT22;1456;51.840;12.184;2022-07-30T05:58:31;18.10;99.90
2893;DHT22;1456;51.840;12.184;2022-07-30T06:00:59;18.00;99.90
2893;DHT22;1456;51.840;12.184;2022-07-30T06:03:25;17.90;99.90
2893;DHT22;1456;51.840;12.184;2022-07-30T06:05:50;17.80;99.90
2893;DHT22;1456;51.840;12.184;2022-07-30T06:08:16;17.70;99.90
2893;DHT22;1456;51.840;12.184;2022-07-30T06:10:41;17.80;99.90
2893;DHT22;1456;51.840;12.184;2022-07-30T06:13:07;17.90;99.90
2893;DHT22;1456;51.840;12.184;2022-07-30T06:15:34;18.00;99.90
2893;DHT22;1456;51.840;12.184;2022-07-30T06:18:00;18.00;99.90
2893;DHT22;1456;51.840;12.184;2022-07-30T06:20:26;18.00;99.90
2893;DHT22;1456;51.840;12.184;2022-07-30T06:22:52;18.20;99.90
2893;DHT22;1456;51.840;12.184;2022-07-30T06:25:17;18.30;99.90
2893;DHT22;1456;51.840;12.184;2022-07-30T06:27:43;18.40;99.90
2893;DHT22;1456;51.840;12.184;2022-07-30T06:30:10;18.40;99.90
2893;DHT22;1456;51.840;12.184;2022-07-30T06:32:36;18.40;99.90
2893;DHT22;1456;51.840;12.184;2022-07-30T06:35:02;18.50;99.90
2893;DHT22;1456;51.840;12.184;2022-07-30T06:37:28;18.60;99.90
2893;DHT22;1456;51.840;12.184;2022-07-30T06:39:54;18.60;99.90
2893;DHT22;1456;51.840;12.184;2022-07-30T06:42:20;18.70;99.90
2893;DHT22;1456;51.840;12.184;2022-07-30T06:44:45;18.80;99.90
2893;DHT22;1456;51.840;12.184;2022-07-30T06:47:11;18.80;99.90
2893;DHT22;1456;51.840;12.184;2022-07-30T06:49:37;18.90;99.90
2893;DHT22;1456;51.840;12.184;2022-07-30T06:52:03;18.90;99.90
2893;DHT22;1456;51.840;12.184;2022-07-30T06:54:30;19.10;99.90
2893;DHT22;1456;51.840;12.184;2022-07-30T06:56:56;19.30;99.90
2893;DHT22;1456;51.840;12.184;2022-07-30T06:59:22;19.40;99.90
2893;DHT22;1456;51.840;12.184;2022-07-30T07:01:48;19.40;99.90
2893;DHT22;1456;51.840;12.184;2022-07-30T07:04:14;19.50;99.90
2893;DHT22;1456;51.840;12.184;2022-07-30T07:06:40;19.60;99.90
2893;DHT22;1456;51.840;12.184;2022-07-30T07:09:06;19.80;99.90
2893;DHT22;1456;51.840;12.184;2022-07-30T07:11:32;19.80;99.90
2893;DHT22;1456;51.840;12.184;2022-07-30T07:13:59;19.80;99.90
2893;DHT22;1456;51.840;12.184;2022-07-30T07:16:25;19.90;99.90
2893;DHT22;1456;51.840;12.184;2022-07-30T07:18:51;20.00;99.90
2893;DHT22;1456;51.840;12.184;2022-07-30T07:21:17;20.10;99.90
2893;DHT22;1456;51.840;12.184;2022-07-30T07:23:43;20.20;99.90
2893;DHT22;1456;51.840;12.184;2022-07-30T07:26:10;20.30;99.90
2893;DHT22;1456;51.840;12.184;2022-07-30T07:28:36;20.20;99.90
2893;DHT22;1456;51.840;12.184;2022-07-30T07:31:02;20.20;99.90
2893;DHT22;1456;51.840;12.184;2022-07-30T07:33:27;20.10;99.90
2893;DHT22;1456;51.840;12.184;2022-07-30T07:35:53;20.00;99.90
2893;DHT22;1456;51.840;12.184;2022-07-30T07:38:20;20.00;99.90
2893;DHT22;1456;51.840;12.184;2022-07-30T07:40:46;20.20;99.90
2893;DHT22;1456;51.840;12.184;2022-07-30T07:43:12;20.30;99.90
2893;DHT22;1456;51.840;12.184;2022-07-30T07:45:40;20.50;99.90
2893;DHT22;1456;51.840;12.184;2022-07-30T07:48:07;20.50;99.90
2893;DHT22;1456;51.840;12.184;2022-07-30T07:50:33;20.50;99.90
2893;DHT22;1456;51.840;12.184;2022-07-30T07:52:58;20.60;99.90
2893;DHT22;1456;51.840;12.184;2022-07-30T07:55:24;20.50;99.90
2893;DHT22;1456;51.840;12.184;2022-07-30T07:57:50;20.50;99.90
2893;DHT22;1456;51.840;12.184;2022-07-30T08:00:16;20.50;99.90
2893;DHT22;1456;51.840;12.184;2022-07-30T08:02:43;20.40;99.90
2893;DHT22;1456;51.840;12.184;2022-07-30T08:05:09;20.30;99.90
2893;DHT22;1456;51.840;12.184;2022-07-30T08:07:40;20.30;99.90
2893;DHT22;1456;51.840;12.184;2022-07-30T08:10:07;20.10;99.90
2893;DHT22;1456;51.840;12.184;2022-07-30T08:12:33;20.10;99.90
2893;DHT22;1456;51.840;12.184;2022-07-30T08:14:59;19.80;99.90
2893;DHT22;1456;51.840;12.184;2022-07-30T08:17:26;19.70;99.90
2893;DHT22;1456;51.840;12.184;2022-07-30T08:19:51;19.70;99.90
2893;DHT22;1456;51.840;12.184;2022-07-30T08:22:17;19.70;99.90
2893;DHT22;1456;51.840;12.184;2022-07-30T08:24:43;19.60;99.90
2893;DHT22;1456;51.840;12.184;2022-07-30T08:27:08;19.60;99.90
2893;DHT22;1456;51.840;12.184;2022-07-30T08:29:36;19.50;99.90
2893;DHT22;1456;51.840;12.184;2022-07-30T08:32:03;19.40;99.90
2893;DHT22;1456;51.840;12.184;2022-07-30T08:34:30;19.40;99.90
2893;DHT22;1456;51.840;12.184;2022-07-30T08:36:55;19.40;99.90
2893;DHT22;1456;51.840;12.184;2022-07-30T08:39:21;19.30;99.90
2893;DHT22;1456;51.840;12.184;2022-07-30T08:41:47;19.30;99.90
2893;DHT22;1456;51.840;12.184;2022-07-30T08:44:16;19.30;99.90
2893;DHT22;1456;51.840;12.184;2022-07-30T08:46:43;19.20;99.90
2893;DHT22;1456;51.840;12.184;2022-07-30T08:49:11;19.20;99.90
2893;DHT22;1456;51.840;12.184;2022-07-30T08:51:37;19.30;99.90
2893;DHT22;1456;51.840;12.184;2022-07-30T08:54:05;19.40;99.90
2893;DHT22;1456;51.840;12.184;2022-07-30T08:56:32;19.60;99.90
2893;DHT22;1456;51.840;12.184;2022-07-30T08:59:02;19.60;99.90
2893;DHT22;1456;51.840;12.184;2022-07-30T09:01:28;19.70;99.90
2893;DHT22;1456;51.840;12.184;2022-07-30T09:03:54;19.90;99.90
2893;DHT22;1456;51.840;12.184;2022-07-30T09:06:19;19.90;99.90
2893;DHT22;1456;51.840;12.184;2022-07-30T09:08:45;20.00;99.90
2893;DHT22;1456;51.840;12.184;2022-07-30T09:11:14;20.20;99.90
2893;DHT22;1456;51.840;12.184;2022-07-30T09:13:42;20.40;99.90
2893;DHT22;1456;51.840;12.184;2022-07-30T09:16:29;20.40;99.90
2893;DHT22;1456;51.840;12.184;2022-07-30T09:18:54;20.50;99.90
2893;DHT22;1456;51.840;12.184;2022-07-30T09:21:24;20.50;99.90
2893;DHT22;1456;51.840;12.184;2022-07-30T09:24:09;20.70;99.90
2893;DHT22;1456;51.840;12.184;2022-07-30T09:26:57;20.90;99.90
2893;DHT22;1456;51.840;12.184;2022-07-30T09:29:27;21.00;99.90
2893;DHT22;1456;51.840;12.184;2022-07-30T09:36:50;21.30;99.90
2893;DHT22;1456;51.840;12.184;2022-07-30T09:39:30;21.50;99.90
2893;DHT22;1456;51.840;12.184;2022-07-30T09:41:57;21.50;99.90
2893;DHT22;1456;51.840;12.184;2022-07-30T09:44:24;21.70;99.90
2893;DHT22;1456;51.840;12.184;2022-07-30T09:46:51;21.80;99.90
2893;DHT22;1456;51.840;12.184;2022-07-30T09:49:18;22.10;99.90
2893;DHT22;1456;51.840;12.184;2022-07-30T09:51:45;22.10;99.90
2893;DHT22;1456;51.840;12.184;2022-07-30T09:54:10;22.10;99.90
2893;DHT22;1456;51.840;12.184;2022-07-30T09:56:36;22.00;99.90
2893;DHT22;1456;51.840;12.184;2022-07-30T09:59:05;22.00;99.90
2893;DHT22;1456;51.840;12.184;2022-07-30T10:01:51;21.90;99.90
2893;DHT22;1456;51.840;12.184;2022-07-30T10:04:30;22.00;99.90
2893;DHT22;1456;51.840;12.184;2022-07-30T10:06:58;21.90;99.90
2893;DHT22;1456;51.840;12.184;2022-07-30T10:09:32;21.90;99.90
2893;DHT22;1456;51.840;12.184;2022-07-30T10:12:00;21.90;99.90
2893;DHT22;1456;51.840;12.184;2022-07-30T10:14:32;21.90;99.90
2893;DHT22;1456;51.840;12.184;2022-07-30T10:16:59;21.70;99.90
2893;DHT22;1456;51.840;12.184;2022-07-30T10:19:25;21.60;99.90
2893;DHT22;1456;51.840;12.184;2022-07-30T10:21:52;21.60;99.90
2893;DHT22;1456;51.840;12.184;2022-07-30T10:24:22;21.60;99.90
2893;DHT22;1456;51.840;12.184;2022-07-30T10:26:49;21.60;99.90
2893;DHT22;1456;51.840;12.184;2022-07-30T10:29:16;21.60;99.90
2893;DHT22;1456;51.840;12.184;2022-07-30T10:31:43;21.60;99.90
2893;DHT22;1456;51.840;12.184;2022-07-30T10:34:11;21.70;99.90
2893;DHT22;1456;51.840;12.184;2022-07-30T10:36:40;21.60;99.90
2893;DHT22;1456;51.840;12.184;2022-07-30T10:39:09;21.60;99.90
2893;DHT22;1456;51.840;12.184;2022-07-30T10:41:48;21.90;99.90
2893;DHT22;1456;51.840;12.184;2022-07-30T10:47:23;22.10;99.90
2893;DHT22;1456;51.840;12.184;2022-07-30T10:52:55;22.30;99.90
2893;DHT22;1456;51.840;12.184;2022-07-30T10:55:29;22.40;99.90
2893;DHT22;1456;51.840;12.184;2022-07-30T10:58:08;22.60;99.90
2893;DHT22;1456;51.840;12.184;2022-07-30T11:00:56;23.10;99.90
2893;DHT22;1456;51.840;12.184;2022-07-30T11:03:23;23.20;99.90
2893;DHT22;1456;51.840;12.184;2022-07-30T11:05:51;23.20;99.90
2893;DHT22;1456;51.840;12.184;2022-07-30T11:08:35;23.20;99.90
2893;DHT22;1456;51.840;12.184;2022-07-30T11:11:49;23.40;99.90
2893;DHT22;1456;51.840;12.184;2022-07-30T11:13:55;23.30;99.90
2893;DHT22;1456;51.840;12.184;2022-07-30T11:19:15;23.50;99.90
2893;DHT22;1456;51.840;12.184;2022-07-30T11:21:46;23.80;99.90
2893;DHT22;1456;51.840;12.184;2022-07-30T11:24:41;23.60;99.90
2893;DHT22;1456;51.840;12.184;2022-07-30T11:27:07;23.70;99.90
2893;DHT22;1456;51.840;12.184;2022-07-30T11:29:35;23.70;99.90
2893;DHT22;1456;51.840;12.184;2022-07-30T11:32:29;23.70;99.90
2893;DHT22;1456;51.840;12.184;2022-07-30T11:35:18;23.90;99.90
2893;DHT22;1456;51.840;12.184;2022-07-30T11:40:20;23.40;99.90
2893;DHT22;1456;51.840;12.184;2022-07-30T11:42:47;23.30;99.90
2893;DHT22;1456;51.840;12.184;2022-07-30T11:47:43;23.30;99.90
2893;DHT22;1456;51.840;12.184;2022-07-30T11:50:20;23.60;99.90
2893;DHT22;1456;51.840;12.184;2022-07-30T11:52:51;23.90;99.90
2893;DHT22;1456;51.840;12.184;2022-07-30T11:58:03;23.90;99.90
2893;DHT22;1456;51.840;12.184;2022-07-30T12:00:37;23.50;99.90
2893;DHT22;1456;51.840;12.184;2022-07-30T12:03:11;23.10;99.90
2893;DHT22;1456;51.840;12.184;2022-07-30T12:05:38;23.00;99.90
2893;DHT22;1456;51.840;12.184;2022-07-30T12:08:05;22.90;99.90
2893;DHT22;1456;51.840;12.184;2022-07-30T12:10:32;22.90;99.90
2893;DHT22;1456;51.840;12.184;2022-07-30T12:15:35;23.00;99.90
2893;DHT22;1456;51.840;12.184;2022-07-30T12:18:01;23.10;99.90
2893;DHT22;1456;51.840;12.184;2022-07-30T12:20:28;23.10;99.90
2893;DHT22;1456;51.840;12.184;2022-07-30T12:22:54;23.10;99.90
2893;DHT22;1456;51.840;12.184;2022-07-30T12:25:20;23.00;99.90
2893;DHT22;1456;51.840;12.184;2022-07-30T12:27:47;23.10;99.90
2893;DHT22;1456;51.840;12.184;2022-07-30T12:30:15;23.30;99.90
2893;DHT22;1456;51.840;12.184;2022-07-30T12:32:45;23.40;99.90
2893;DHT22;1456;51.840;12.184;2022-07-30T12:35:11;23.70;99.90
2893;DHT22;1456;51.840;12.184;2022-07-30T12:37:38;23.90;99.90
2893;DHT22;1456;51.840;12.184;2022-07-30T12:40:05;24.00;99.90
2893;DHT22;1456;51.840;12.184;2022-07-30T12:42:31;24.20;99.90
2893;DHT22;1456;51.840;12.184;2022-07-30T12:44:57;24.50;99.90
2893;DHT22;1456;51.840;12.184;2022-07-30T12:47:30;24.20;99.90
2893;DHT22;1456;51.840;12.184;2022-07-30T12:49:57;24.30;99.90
2893;DHT22;1456;51.840;12.184;2022-07-30T12:52:31;24.10;99.90
2893;DHT22;1456;51.840;12.184;2022-07-30T12:55:06;23.90;99.90
2893;DHT22;1456;51.840;12.184;2022-07-30T13:00:19;23.20;99.90
2893;DHT22;1456;51.840;12.184;2022-07-30T13:02:45;23.10;99.90
2893;DHT22;1456;51.840;12.184;2022-07-30T13:05:11;23.30;99.90
2893;DHT22;1456;51.840;12.184;2022-07-30T13:07:52;23.50;99.90
2893;DHT22;1456;51.840;12.184;2022-07-30T13:10:18;23.70;99.90
2893;DHT22;1456;51.840;12.184;2022-07-30T13:12:44;24.00;99.90
2893;DHT22;1456;51.840;12.184;2022-07-30T13:15:19;24.30;99.90
2893;DHT22;1456;51.840;12.184;2022-07-30T13:17:46;24.10;99.90
2893;DHT22;1456;51.840;12.184;2022-07-30T13:20:13;24.30;99.90
2893;DHT22;1456;51.840;12.184;2022-07-30T13:23:07;24.80;99.90
2893;DHT22;1456;51.840;12.184;2022-07-30T13:25:33;25.10;99.90
2893;DHT22;1456;51.840;12.184;2022-07-30T13:27:59;25.70;99.90
2893;DHT22;1456;51.840;12.184;2022-07-30T13:30:24;25.90;99.90
2893;DHT22;1456;51.840;12.184;2022-07-30T13:32:50;26.20;99.90
2893;DHT22;1456;51.840;12.184;2022-07-30T13:35:15;26.50;99.90
2893;DHT22;1456;51.840;12.184;2022-07-30T13:37:41;27.00;99.90
2893;DHT22;1456;51.840;12.184;2022-07-30T13:40:08;27.50;99.90
2893;DHT22;1456;51.840;12.184;2022-07-30T13:42:34;27.60;99.90
2893;DHT22;1456;51.840;12.184;2022-07-30T13:44:59;27.90;99.90
2893;DHT22;1456;51.840;12.184;2022-07-30T13:47:25;28.10;99.90
2893;DHT22;1456;51.840;12.184;2022-07-30T13:49:51;28.50;99.50
2893;DHT22;1456;51.840;12.184;2022-07-30T13:52:16;28.70;98.50
2893;DHT22;1456;51.840;12.184;2022-07-30T13:54:42;28.60;99.00
2893;DHT22;1456;51.840;12.184;2022-07-30T13:57:08;28.50;99.20
2893;DHT22;1456;51.840;12.184;2022-07-30T13:59:34;28.40;99.00
2893;DHT22;1456;51.840;12.184;2022-07-30T14:02:00;28.30;98.80
2893;DHT22;1456;51.840;12.184;2022-07-30T14:04:28;28.60;99.90
2893;DHT22;1456;51.840;12.184;2022-07-30T14:06:56;28.40;98.30
2893;DHT22;1456;51.840;12.184;2022-07-30T14:09:23;28.50;98.80
2893;DHT22;1456;51.840;12.184;2022-07-30T14:11:49;28.70;98.50
2893;DHT22;1456;51.840;12.184;2022-07-30T14:14:14;28.70;97.30
2893;DHT22;1456;51.840;12.184;2022-07-30T14:16:40;28.60;98.50
2893;DHT22;1456;51.840;12.184;2022-07-30T14:19:06;28.60;97.90
2893;DHT22;1456;51.840;12.184;2022-07-30T14:21:31;28.40;98.60
2893;DHT22;1456;51.840;12.184;2022-07-30T14:23:57;28.50;98.60
2893;DHT22;1456;51.840;12.184;2022-07-30T14:26:23;28.20;98.70
2893;DHT22;1456;51.840;12.184;2022-07-30T14:28:48;28.10;99.80
2893;DHT22;1456;51.840;12.184;2022-07-30T14:31:14;28.10;99.00
2893;DHT22;1456;51.840;12.184;2022-07-30T14:33:40;28.30;99.50
2893;DHT22;1456;51.840;12.184;2022-07-30T14:36:05;28.50;97.40
2893;DHT22;1456;51.840;12.184;2022-07-30T14:38:31;28.60;97.90
2893;DHT22;1456;51.840;12.184;2022-07-30T14:40:56;28.50;97.40
2893;DHT22;1456;51.840;12.184;2022-07-30T14:43:22;28.80;98.10
2893;DHT22;1456;51.840;12.184;2022-07-30T14:45:49;28.90;97.80
2893;DHT22;1456;51.840;12.184;2022-07-30T14:48:17;28.90;97.30
2893;DHT22;1456;51.840;12.184;2022-07-30T14:50:42;29.30;98.00
2893;DHT22;1456;51.840;12.184;2022-07-30T14:53:08;29.80;96.80
2893;DHT22;1456;51.840;12.184;2022-07-30T14:55:34;30.00;96.00
2893;DHT22;1456;51.840;12.184;2022-07-30T14:57:59;30.00;96.60
2893;DHT22;1456;51.840;12.184;2022-07-30T15:00:25;30.00;95.70
2893;DHT22;1456;51.840;12.184;2022-07-30T15:02:51;30.00;96.30
2893;DHT22;1456;51.840;12.184;2022-07-30T15:05:16;29.60;95.60
2893;DHT22;1456;51.840;12.184;2022-07-30T15:07:42;29.00;96.30
2893;DHT22;1456;51.840;12.184;2022-07-30T15:10:08;28.50;96.30
2893;DHT22;1456;51.840;12.184;2022-07-30T15:12:37;28.10;96.60
2893;DHT22;1456;51.840;12.184;2022-07-30T15:15:04;28.00;98.30
2893;DHT22;1456;51.840;12.184;2022-07-30T15:17:30;28.10;98.30
2893;DHT22;1456;51.840;12.184;2022-07-30T15:19:55;28.40;97.50
2893;DHT22;1456;51.840;12.184;2022-07-30T15:22:21;28.40;98.20
2893;DHT22;1456;51.840;12.184;2022-07-30T15:24:47;28.40;97.50
2893;DHT22;1456;51.840;12.184;2022-07-30T15:27:13;28.40;97.90
2893;DHT22;1456;51.840;12.184;2022-07-30T15:29:39;28.50;99.00
2893;DHT22;1456;51.840;12.184;2022-07-30T15:32:04;28.60;97.40
2893;DHT22;1456;51.840;12.184;2022-07-30T15:34:31;28.60;97.40
2893;DHT22;1456;51.840;12.184;2022-07-30T15:36:59;28.70;97.90
2893;DHT22;1456;51.840;12.184;2022-07-30T15:39:25;28.80;97.90
2893;DHT22;1456;51.840;12.184;2022-07-30T15:41:55;29.10;97.10
2893;DHT22;1456;51.840;12.184;2022-07-30T15:44:21;29.20;96.50
2893;DHT22;1456;51.840;12.184;2022-07-30T15:46:47;29.50;96.90
2893;DHT22;1456;51.840;12.184;2022-07-30T15:49:12;30.50;95.50
2893;DHT22;1456;51.840;12.184;2022-07-30T15:51:38;31.40;93.50
2893;DHT22;1456;51.840;12.184;2022-07-30T15:54:19;32.20;92.50
2893;DHT22;1456;51.840;12.184;2022-07-30T15:56:47;33.10;91.40
2893;DHT22;1456;51.840;12.184;2022-07-30T15:59:13;33.10;90.40
2893;DHT22;1456;51.840;12.184;2022-07-30T16:01:39;32.10;89.10
2893;DHT22;1456;51.840;12.184;2022-07-30T16:04:05;30.90;91.60
2893;DHT22;1456;51.840;12.184;2022-07-30T16:06:31;29.90;91.80
2893;DHT22;1456;51.840;12.184;2022-07-30T16:08:57;29.10;93.30
2893;DHT22;1456;51.840;12.184;2022-07-30T16:11:23;28.70;94.80
2893;DHT22;1456;51.840;12.184;2022-07-30T16:13:49;28.70;94.80
2893;DHT22;1456;51.840;12.184;2022-07-30T16:16:15;28.50;94.60
2893;DHT22;1456;51.840;12.184;2022-07-30T16:18:41;28.30;95.00